Startpagina
METAR-TAF:

METAR-TAF

Vliegvelden :

Flughafen Düsseldorf

Düsseldorf, Duitsland

breedte: 51-18N, lengte: 006-46E, hoogte: 45 m

Actueel weer

Dit bericht is 31 minuten geleden gemaakt, om 03:20 UTC
Wind 1 kt uit variabele richting
Temperatuur 18°C
Vochtigheid 88%
Druk 1020 hPa
Zicht 10 km of meer
geen wolken onder 1500 m en geen cumulonimbus

METAR: EDDL 210320Z VRB01KT CAVOK 18/16 Q1020 NOSIG

Tijdstip: 05:51 (03:51 UTC)

Verwachting

Dit bericht is 4 uur en het 51 minuten geleden gemaakt, om 23:00 UTC
Verwachting geldig van 21 om 00 UTC tot 22 om 06 UTC
Wind 3 kt uit variabele richting
Zicht 10 km of meer
Verspreide wolken op 4000 ft
Tijdelijke
van 21 om 12 UTC tot 21 om 17 UTC
Wind 5 kt uit het noordwesten

TAF: EDDL 202300Z 2100/2206 VRB03KT 9999 SCT040 TEMPO 2112/2117 31005KT

Waarnemingen en weersverwachtingen van meer dan 4000 vliegvelden (METAR en TAF).

De beschikbare stations zijn de gele en rode punten op de kaart.

Ga met uw muis naar het station om de naam te zien.

Klik dan om waarnemingen en weersverwachtingen te zien.

kaart wijzigen: klik op de groene knoppen met een zwart kruis om in te zoomen, op de groene knop met een streepje om uit te zoomen of op de groene pijlen voor aangrenzende kaarten.


METAR-TAF: